createdAt,value
2018-12-30T00:02:32.230Z,1.20
2018-12-30T00:08:18.786Z,1.00
2018-12-30T00:11:19.503Z,1.27
2018-12-30T00:17:05.711Z,1.20
2018-12-30T00:22:51.447Z,1.10
2018-12-30T00:28:37.275Z,1.57
2018-12-30T00:31:38.434Z,1.37
2018-12-30T00:37:23.335Z,1.23
2018-12-30T00:43:08.965Z,1.13
2018-12-30T00:48:55.459Z,1.10
2018-12-30T00:51:56.595Z,0.93
2018-12-30T00:57:42.488Z,1.60
2018-12-30T01:03:28.074Z,0.93
2018-12-30T01:09:13.008Z,1.47
2018-12-30T01:12:14.613Z,1.60
2018-12-30T01:18:01.242Z,1.33
2018-12-30T01:23:46.180Z,1.97
2018-12-30T01:26:46.685Z,2.00
2018-12-30T01:29:48.490Z,2.63
2018-12-30T01:32:50.010Z,2.83
2018-12-30T01:38:35.483Z,2.50
2018-12-30T01:44:20.819Z,2.30
2018-12-30T01:50:06.651Z,2.00
2018-12-30T01:53:07.915Z,2.80
2018-12-30T01:58:54.027Z,2.27
2018-12-30T02:04:39.388Z,2.37
2018-12-30T02:10:25.930Z,2.17
2018-12-30T02:13:27.327Z,2.37
2018-12-30T02:19:12.950Z,2.40
2018-12-30T02:24:58.542Z,2.07
2018-12-30T02:30:43.904Z,2.23
2018-12-30T02:33:45.496Z,2.47
2018-12-30T02:39:31.153Z,2.63
2018-12-30T02:45:17.470Z,2.43
2018-12-30T02:51:03.080Z,3.00
2018-12-30T02:56:49.583Z,2.37
2018-12-30T02:59:50.861Z,2.87
2018-12-30T03:05:36.551Z,2.53
2018-12-30T03:08:37.040Z,2.90
2018-12-30T03:11:38.458Z,2.27
2018-12-30T03:17:24.135Z,3.23
2018-12-30T03:23:09.370Z,3.03
2018-12-30T03:28:54.785Z,2.80
2018-12-30T03:31:56.369Z,2.70
2018-12-30T03:37:41.927Z,2.23
2018-12-30T03:43:27.854Z,3.10
2018-12-30T03:49:12.490Z,2.40
2018-12-30T03:54:58.346Z,2.80
2018-12-30T04:00:43.711Z,2.60
2018-12-30T04:06:30.471Z,2.17
2018-12-30T04:12:41.987Z,2.50
2018-12-30T04:15:43.540Z,2.13
2018-12-30T04:21:30.061Z,2.80
2018-12-30T04:27:14.853Z,2.80
2018-12-30T04:30:16.319Z,2.63
2018-12-30T04:36:01.939Z,2.40
2018-12-30T04:41:43.031Z,3.10
2018-12-30T04:47:28.519Z,2.37
2018-12-30T04:50:29.551Z,2.70
2018-12-30T04:56:15.682Z,2.33
2018-12-30T05:02:01.470Z,3.10
2018-12-30T05:07:47.067Z,2.23
2018-12-30T05:13:32.475Z,3.30
2018-12-30T05:16:33.722Z,2.43
2018-12-30T05:22:20.111Z,3.00
2018-12-30T05:28:05.428Z,2.23
2018-12-30T05:33:51.710Z,2.40
2018-12-30T05:36:52.987Z,2.60
2018-12-30T05:42:39.530Z,2.40
2018-12-30T05:48:25.890Z,2.50
2018-12-30T05:54:06.658Z,2.23
2018-12-30T05:57:08.223Z,2.57
2018-12-30T06:02:53.796Z,2.87
2018-12-30T06:08:39.286Z,3.03
2018-12-30T06:14:24.100Z,3.08
2018-12-30T06:17:25.247Z,2.53
2018-12-30T06:23:11.726Z,2.80
2018-12-30T06:28:57.670Z,2.23
2018-12-30T06:34:43.591Z,3.07
2018-12-30T06:37:44.811Z,2.20
2018-12-30T06:43:29.727Z,2.50
2018-12-30T06:49:15.324Z,2.43
2018-12-30T06:55:00.011Z,2.00
2018-12-30T06:58:01.147Z,2.20
2018-12-30T07:03:46.094Z,1.80
2018-12-30T07:09:32.572Z,1.70
2018-12-30T07:15:18.276Z,2.10
2018-12-30T07:18:19.558Z,1.90
2018-12-30T07:24:06.002Z,2.27
2018-12-30T07:29:51.805Z,1.60
2018-12-30T07:35:37.653Z,2.00
2018-12-30T07:38:38.731Z,1.77
2018-12-30T07:44:25.238Z,2.63
2018-12-30T07:50:10.851Z,1.87
2018-12-30T07:55:56.330Z,1.70
2018-12-30T07:58:57.642Z,1.80
2018-12-30T08:04:42.662Z,1.57
2018-12-30T08:07:44.848Z,1.83
2018-12-30T08:10:46.774Z,1.53
2018-12-30T08:16:32.531Z,1.87
2018-12-30T08:19:33.819Z,1.70
2018-12-30T08:25:19.612Z,1.53
2018-12-30T08:31:06.264Z,2.00
2018-12-30T08:36:51.254Z,2.80
2018-12-30T08:39:52.434Z,1.90
2018-12-30T08:45:38.213Z,1.80
2018-12-30T08:51:24.742Z,1.63
2018-12-30T08:57:10.375Z,2.60
2018-12-30T09:00:11.898Z,2.60
2018-12-30T09:05:57.531Z,2.20
2018-12-30T09:11:42.366Z,2.47
2018-12-30T09:17:27.088Z,2.80
2018-12-30T09:20:27.663Z,2.07
2018-12-30T09:26:13.542Z,2.50
2018-12-30T09:31:58.810Z,2.57
2018-12-30T09:37:44.685Z,1.97
2018-12-30T09:40:46.284Z,2.87
2018-12-30T09:46:31.799Z,2.50
2018-12-30T09:52:16.860Z,2.17
2018-12-30T09:58:03.869Z,2.20
2018-12-30T10:01:04.791Z,1.70
2018-12-30T10:06:50.522Z,2.00
2018-12-30T10:12:36.022Z,2.10
2018-12-30T10:18:22.242Z,1.60
2018-12-30T10:21:23.582Z,1.73
2018-12-30T10:28:03.448Z,1.90
2018-12-30T10:33:49.850Z,2.00
2018-12-30T10:36:51.219Z,2.30
2018-12-30T10:42:37.018Z,1.87
2018-12-30T10:48:23.196Z,2.20
2018-12-30T10:54:09.020Z,2.13
2018-12-30T10:57:10.302Z,1.70
2018-12-30T11:02:55.381Z,1.83
2018-12-30T11:08:40.834Z,1.90
2018-12-30T11:14:27.459Z,2.10
2018-12-30T11:17:29.003Z,1.73
2018-12-30T11:23:14.814Z,2.20
2018-12-30T11:28:55.227Z,1.73
2018-12-30T11:34:41.035Z,2.30
2018-12-30T11:37:42.766Z,1.73
2018-12-30T11:43:28.511Z,1.60
2018-12-30T11:49:14.259Z,1.90
2018-12-30T11:54:59.842Z,1.77
2018-12-30T11:58:01.367Z,1.70
2018-12-30T12:03:46.688Z,1.50
2018-12-30T12:09:32.914Z,1.47
2018-12-30T12:15:13.612Z,1.90
2018-12-30T12:21:00.069Z,2.00
2018-12-30T12:24:01.551Z,1.90
2018-12-30T12:29:46.948Z,1.77
2018-12-30T12:35:33.166Z,1.43
2018-12-30T12:41:19.242Z,2.00
2018-12-30T12:44:20.659Z,2.07
2018-12-30T12:50:07.426Z,1.83
2018-12-30T12:55:52.923Z,2.23
2018-12-30T13:01:39.203Z,2.20
2018-12-30T13:04:39.913Z,2.33
2018-12-30T13:10:26.263Z,1.87
2018-12-30T13:16:12.932Z,2.37
2018-12-30T13:22:04.439Z,2.87
2018-12-30T13:25:05.810Z,2.50
2018-12-30T13:30:51.420Z,1.97
2018-12-30T13:36:36.981Z,2.00
2018-12-30T13:42:22.430Z,1.80
2018-12-30T13:45:23.923Z,2.13
2018-12-30T13:51:09.558Z,2.00
2018-12-30T13:56:56.959Z,1.97
2018-12-30T14:02:43.283Z,1.90
2018-12-30T14:08:29.489Z,1.70
2018-12-30T14:11:30.087Z,2.10
2018-12-30T14:17:15.650Z,1.50
2018-12-30T14:23:01.402Z,1.80
2018-12-30T14:28:48.975Z,1.57
2018-12-30T14:34:34.395Z,1.27
2018-12-30T14:40:20.755Z,2.10
2018-12-30T14:46:06.959Z,1.77
2018-12-30T14:49:08.639Z,2.00
2018-12-30T14:54:53.386Z,2.70
2018-12-30T15:00:39.055Z,1.90
2018-12-30T15:06:24.975Z,1.83
2018-12-30T15:12:09.628Z,2.00
2018-12-30T15:17:56.199Z,2.10
2018-12-30T15:20:57.515Z,1.67
2018-12-30T15:26:43.993Z,1.70
2018-12-30T15:32:32.372Z,1.90
2018-12-30T15:38:17.942Z,1.67
2018-12-30T15:44:02.559Z,1.40
2018-12-30T15:47:03.651Z,1.73
2018-12-30T15:52:49.318Z,1.97
2018-12-30T15:58:34.130Z,1.63
2018-12-30T16:04:19.172Z,1.97
2018-12-30T16:10:05.767Z,1.83
2018-12-30T16:13:07.362Z,2.20
2018-12-30T16:18:53.936Z,2.62
2018-12-30T16:24:39.486Z,2.20
2018-12-30T16:30:25.219Z,2.73
2018-12-30T16:33:26.532Z,3.33
2018-12-30T16:39:12.444Z,3.53
2018-12-30T16:42:12.994Z,3.80
2018-12-30T16:45:13.536Z,3.33
2018-12-30T16:48:15.006Z,3.80
2018-12-30T16:51:15.867Z,3.23
2018-12-30T16:54:16.433Z,4.10
2018-12-30T17:00:02.974Z,3.70
2018-12-30T17:05:48.934Z,3.13
2018-12-30T17:08:50.082Z,2.90
2018-12-30T17:11:50.739Z,3.00
2018-12-30T17:14:51.527Z,3.27
2018-12-30T17:20:37.187Z,3.83
2018-12-30T17:26:22.707Z,2.90
2018-12-30T17:32:07.488Z,2.70
2018-12-30T17:35:09.052Z,3.10
2018-12-30T17:41:01.472Z,2.57
2018-12-30T17:46:42.426Z,2.30
2018-12-30T17:49:43.640Z,2.40
2018-12-30T17:52:44.658Z,2.37
2018-12-30T17:55:50.786Z,3.70
2018-12-30T18:01:32.807Z,2.53
2018-12-30T18:07:19.138Z,2.80
2018-12-30T18:13:04.835Z,2.77
2018-12-30T18:16:05.910Z,2.37
2018-12-30T18:21:51.730Z,2.50
2018-12-30T18:27:37.430Z,2.40
2018-12-30T18:33:22.724Z,2.73
2018-12-30T18:36:28.946Z,2.43
2018-12-30T18:42:14.524Z,3.23
2018-12-30T18:48:00.307Z,2.50
2018-12-30T18:51:02.742Z,2.40
2018-12-30T18:54:03.566Z,2.93
2018-12-30T18:57:04.130Z,2.90
2018-12-30T19:00:04.407Z,2.43
2018-12-30T19:03:04.947Z,2.83
2018-12-30T19:08:50.457Z,2.53
2018-12-30T19:11:51.639Z,2.53
2018-12-30T19:17:38.737Z,2.63
2018-12-30T19:23:25.277Z,2.20
2018-12-30T19:29:11.144Z,2.50
2018-12-30T19:32:12.396Z,2.97
2018-12-30T19:37:57.977Z,2.50
2018-12-30T19:43:43.633Z,3.27
2018-12-30T19:49:30.053Z,2.90
2018-12-30T19:52:31.118Z,2.93
2018-12-30T19:58:16.049Z,3.37
2018-12-30T20:04:00.763Z,3.60
2018-12-30T20:09:45.618Z,4.10
2018-12-30T20:12:47.139Z,5.03
2018-12-30T20:18:32.659Z,9.20
2018-12-30T20:24:17.435Z,7.10
2018-12-30T20:30:03.587Z,7.33
2018-12-30T20:33:06.538Z,7.57
2018-12-30T20:36:08.088Z,7.90
2018-12-30T20:39:09.610Z,8.17
2018-12-30T20:44:55.151Z,13.10
2018-12-30T20:50:41.731Z,5.87
2018-12-30T20:53:42.974Z,5.60
2018-12-30T20:59:27.921Z,5.43
2018-12-30T21:05:13.679Z,6.10
2018-12-30T21:10:59.457Z,6.40
2018-12-30T21:14:00.874Z,6.27
2018-12-30T21:19:46.771Z,7.43
2018-12-30T21:25:31.606Z,6.53
2018-12-30T21:31:17.510Z,7.23
2018-12-30T21:37:03.123Z,6.83
2018-12-30T21:42:48.905Z,6.63
2018-12-30T21:45:49.523Z,6.73
2018-12-30T21:51:35.668Z,7.63
2018-12-30T21:57:21.075Z,7.37
2018-12-30T22:00:22.366Z,7.70
2018-12-30T22:03:23.335Z,8.33
2018-12-30T22:09:09.065Z,9.00
2018-12-30T22:14:54.789Z,9.23
2018-12-30T22:17:56.131Z,9.40
2018-12-30T22:23:41.947Z,9.83
2018-12-30T22:29:28.411Z,10.93
2018-12-30T22:35:13.699Z,12.53
2018-12-30T22:41:04.845Z,13.53
2018-12-30T22:44:06.324Z,13.37
2018-12-30T22:49:52.118Z,12.43
2018-12-30T22:55:37.425Z,13.03
2018-12-30T23:01:23.898Z,13.03
2018-12-30T23:04:25.363Z,12.47
2018-12-30T23:10:12.054Z,13.37
2018-12-30T23:15:56.739Z,13.20
2018-12-30T23:21:42.399Z,13.37
2018-12-30T23:24:44.877Z,13.63
2018-12-30T23:30:30.650Z,12.30
2018-12-30T23:36:16.102Z,14.17
2018-12-30T23:42:01.615Z,14.03
2018-12-30T23:45:03.177Z,13.30
2018-12-30T23:50:49.191Z,14.90
2018-12-30T23:53:51.566Z,13.33
2018-12-30T23:56:52.501Z,13.93
2018-12-30T23:59:54.047Z,14.53
